RYR91AC LICT-LIBD
Flight info
| Callsign | RYR91AC |
|---|---|
| Flight time | 0h 48m |
| Altitude | 38000 |
| Route | PAL DCT ROSAS DCT AMANO DCT NAXES DCT VARAL DCT POLIT DCT KUTID DCT VEGAN DCT BUMOK |
| Aircraft | B738/M-SDE3FGILRWY/SB1 |
Departure
| Time | 2026-05-06 10:22 |
|---|---|
| Airport | Vincenzo Florio Airport Trapani-Birgi (LICT) |
Arrival
| Time | 2026-05-06 11:11 |
|---|---|
| Airport | Bari Karol Wojtyła International Airport (LIBD) |
| Time | Latitude | Longitude | Altitude | Speed | Heading |
|---|---|---|---|---|---|
| 2026-05-06 10:12 | 37.90318 | 12.49538 | 16 ft | 0 kts | 260° |
| 2026-05-06 10:17 | 37.90320 | 12.49552 | 32 ft | 2 kts | 259° |
| 2026-05-06 10:18 | 37.90323 | 12.49573 | 32 ft | 2 kts | 259° |
| 2026-05-06 10:18 | 37.90326 | 12.49593 | 31 ft | 2 kts | 259° |
| 2026-05-06 10:18 | 37.90329 | 12.49613 | 31 ft | 2 kts | 261° |
| 2026-05-06 10:18 | 37.90331 | 12.49634 | 29 ft | 2 kts | 281° |
| 2026-05-06 10:19 | 37.90329 | 12.49642 | 29 ft | 0 kts | 301° |
| 2026-05-06 10:20 | 37.90339 | 12.49623 | 30 ft | 8 kts | 301° |
| 2026-05-06 10:20 | 37.90392 | 12.49533 | 32 ft | 11 kts | 333° |
| 2026-05-06 10:20 | 37.90476 | 12.49537 | 29 ft | 16 kts | 353° |
| 2026-05-06 10:20 | 37.90607 | 12.49472 | 32 ft | 24 kts | 337° |
| 2026-05-06 10:21 | 37.90778 | 12.49358 | 31 ft | 31 kts | 315° |
| 2026-05-06 10:21 | 37.90920 | 12.49146 | 27 ft | 32 kts | 309° |
| 2026-05-06 10:21 | 37.91108 | 12.48851 | 31 ft | 72 kts | 307° |
| 2026-05-06 10:21 | 37.91559 | 12.48115 | 19 ft | 140 kts | 309° |
| 2026-05-06 10:22 | 37.92235 | 12.46961 | 248 ft | 174 kts | 305° |
| 2026-05-06 10:22 | 37.93081 | 12.45648 | 575 ft | 210 kts | 316° |
| 2026-05-06 10:22 | 37.94369 | 12.44996 | 1513 ft | 196 kts | 7° |
| 2026-05-06 10:22 | 37.95580 | 12.45600 | 2314 ft | 191 kts | 43° |
| 2026-05-06 10:23 | 37.96712 | 12.46731 | 2685 ft | 223 kts | 42° |
| 2026-05-06 10:23 | 37.97995 | 12.48027 | 2982 ft | 244 kts | 42° |
| 2026-05-06 10:23 | 37.99361 | 12.49389 | 3516 ft | 253 kts | 41° |
| 2026-05-06 10:23 | 38.00775 | 12.50765 | 4119 ft | 258 kts | 39° |
| 2026-05-06 10:24 | 38.02222 | 12.52140 | 4875 ft | 263 kts | 38° |
| 2026-05-06 10:24 | 38.03709 | 12.53523 | 5621 ft | 268 kts | 37° |
| 2026-05-06 10:24 | 38.05253 | 12.54931 | 6181 ft | 281 kts | 36° |
| 2026-05-06 10:24 | 38.06865 | 12.56398 | 6874 ft | 288 kts | 36° |
| 2026-05-06 10:25 | 38.08509 | 12.57892 | 7619 ft | 292 kts | 36° |
| 2026-05-06 10:25 | 38.10180 | 12.59405 | 8375 ft | 297 kts | 35° |
| 2026-05-06 10:25 | 38.11854 | 12.60914 | 9133 ft | 301 kts | 35° |
| 2026-05-06 10:25 | 38.13579 | 12.62463 | 9897 ft | 305 kts | 34° |
| 2026-05-06 10:26 | 38.15340 | 12.64041 | 10424 ft | 318 kts | 34° |
| 2026-05-06 10:26 | 38.17225 | 12.65725 | 10625 ft | 341 kts | 34° |
| 2026-05-06 10:26 | 38.19200 | 12.67491 | 11144 ft | 351 kts | 34° |
| 2026-05-06 10:26 | 38.21207 | 12.69286 | 11849 ft | 355 kts | 33° |
| 2026-05-06 10:27 | 38.23238 | 12.71102 | 12575 ft | 359 kts | 33° |
| 2026-05-06 10:27 | 38.25298 | 12.72946 | 13322 ft | 364 kts | 33° |
| 2026-05-06 10:27 | 38.27358 | 12.74790 | 14024 ft | 369 kts | 33° |
| 2026-05-06 10:27 | 38.29471 | 12.76682 | 14729 ft | 373 kts | 33° |
| 2026-05-06 10:28 | 38.31609 | 12.78599 | 15476 ft | 376 kts | 33° |
| 2026-05-06 10:28 | 38.33766 | 12.80533 | 16194 ft | 380 kts | 33° |
| 2026-05-06 10:28 | 38.35913 | 12.82460 | 16888 ft | 384 kts | 33° |
| 2026-05-06 10:28 | 38.38115 | 12.84437 | 17591 ft | 388 kts | 33° |
| 2026-05-06 10:29 | 38.40335 | 12.86433 | 18292 ft | 392 kts | 33° |
| 2026-05-06 10:29 | 38.42581 | 12.88453 | 18900 ft | 396 kts | 33° |
| 2026-05-06 10:29 | 38.44840 | 12.90487 | 19534 ft | 400 kts | 33° |
| 2026-05-06 10:29 | 38.47123 | 12.92544 | 20154 ft | 403 kts | 33° |
| 2026-05-06 10:30 | 38.49422 | 12.94618 | 20762 ft | 406 kts | 33° |
| 2026-05-06 10:30 | 38.50954 | 12.96000 | 21152 ft | 408 kts | 33° |
| 2026-05-06 10:30 | 38.53292 | 12.98112 | 21743 ft | 412 kts | 33° |
| 2026-05-06 10:30 | 38.55651 | 13.00243 | 22319 ft | 416 kts | 33° |
| 2026-05-06 10:31 | 38.58022 | 13.02387 | 22891 ft | 419 kts | 33° |
| 2026-05-06 10:31 | 38.60418 | 13.04556 | 23452 ft | 423 kts | 33° |
| 2026-05-06 10:31 | 38.62833 | 13.06744 | 23927 ft | 427 kts | 33° |
| 2026-05-06 10:31 | 38.65237 | 13.08924 | 24393 ft | 429 kts | 33° |
| 2026-05-06 10:32 | 38.67685 | 13.11146 | 24885 ft | 432 kts | 33° |
| 2026-05-06 10:32 | 38.70145 | 13.13379 | 25345 ft | 435 kts | 32° |
| 2026-05-06 10:32 | 38.72623 | 13.15632 | 25799 ft | 437 kts | 32° |
| 2026-05-06 10:32 | 38.75112 | 13.17896 | 26246 ft | 440 kts | 32° |
| 2026-05-06 10:33 | 38.77614 | 13.20175 | 26688 ft | 443 kts | 32° |
| 2026-05-06 10:33 | 38.80128 | 13.22465 | 27121 ft | 445 kts | 32° |
| 2026-05-06 10:33 | 38.82663 | 13.24778 | 27545 ft | 448 kts | 32° |
| 2026-05-06 10:33 | 38.85208 | 13.27101 | 27967 ft | 451 kts | 32° |
| 2026-05-06 10:34 | 38.87777 | 13.29449 | 28384 ft | 453 kts | 31° |
| 2026-05-06 10:34 | 38.90328 | 13.31782 | 28784 ft | 456 kts | 31° |
| 2026-05-06 10:34 | 38.92927 | 13.34161 | 29178 ft | 458 kts | 31° |
| 2026-05-06 10:34 | 38.95536 | 13.36552 | 29603 ft | 460 kts | 31° |
| 2026-05-06 10:35 | 38.98133 | 13.38936 | 30151 ft | 457 kts | 31° |
| 2026-05-06 10:35 | 39.00718 | 13.41312 | 30670 ft | 454 kts | 31° |
| 2026-05-06 10:35 | 39.03252 | 13.43643 | 31159 ft | 452 kts | 31° |
| 2026-05-06 10:35 | 39.05840 | 13.46024 | 31598 ft | 451 kts | 31° |
| 2026-05-06 10:36 | 39.08359 | 13.48342 | 32033 ft | 450 kts | 31° |
| 2026-05-06 10:36 | 39.10907 | 13.50690 | 32493 ft | 448 kts | 31° |
| 2026-05-06 10:36 | 39.13441 | 13.53027 | 32944 ft | 446 kts | 31° |
| 2026-05-06 10:36 | 39.15958 | 13.55350 | 33378 ft | 445 kts | 31° |
| 2026-05-06 10:37 | 39.18469 | 13.57670 | 33808 ft | 443 kts | 31° |
| 2026-05-06 10:37 | 39.20977 | 13.59988 | 34043 ft | 446 kts | 31° |
| 2026-05-06 10:37 | 39.26043 | 13.64676 | 34023 ft | 446 kts | 31° |
| 2026-05-06 10:38 | 39.31044 | 13.69321 | 34022 ft | 439 kts | 31° |
| 2026-05-06 10:38 | 39.35996 | 13.73920 | 34039 ft | 442 kts | 31° |
| 2026-05-06 10:39 | 39.41014 | 13.78594 | 34041 ft | 445 kts | 32° |
| 2026-05-06 10:39 | 39.45552 | 13.84150 | 34040 ft | 453 kts | 44° |
| 2026-05-06 10:40 | 39.49780 | 13.90231 | 34033 ft | 454 kts | 44° |
| 2026-05-06 10:40 | 39.53991 | 13.96286 | 34030 ft | 454 kts | 44° |
| 2026-05-06 10:41 | 39.58250 | 14.02341 | 34031 ft | 453 kts | 44° |
| 2026-05-06 10:41 | 39.62505 | 14.08371 | 34032 ft | 453 kts | 44° |
| 2026-05-06 10:42 | 39.66733 | 14.14370 | 34035 ft | 452 kts | 44° |
| 2026-05-06 10:42 | 39.70909 | 14.20315 | 34028 ft | 440 kts | 44° |
| 2026-05-06 10:43 | 39.75030 | 14.26187 | 34034 ft | 440 kts | 43° |
| 2026-05-06 10:43 | 39.77104 | 14.29145 | 33673 ft | 442 kts | 44° |
| 2026-05-06 10:44 | 39.81169 | 14.34959 | 32985 ft | 432 kts | 44° |
| 2026-05-06 10:44 | 39.83182 | 14.37843 | 32605 ft | 429 kts | 44° |
| 2026-05-06 10:44 | 39.85189 | 14.40717 | 32231 ft | 426 kts | 44° |
| 2026-05-06 10:44 | 39.87171 | 14.43560 | 31861 ft | 423 kts | 44° |
| 2026-05-06 10:45 | 39.89147 | 14.46396 | 31488 ft | 421 kts | 44° |
| 2026-05-06 10:45 | 39.91113 | 14.49225 | 31092 ft | 420 kts | 44° |
| 2026-05-06 10:45 | 39.93040 | 14.52006 | 30726 ft | 415 kts | 44° |
| 2026-05-06 10:45 | 39.94954 | 14.54774 | 30357 ft | 408 kts | 44° |
| 2026-05-06 10:46 | 39.96843 | 14.57506 | 29985 ft | 402 kts | 44° |
| 2026-05-06 10:46 | 39.98706 | 14.60199 | 29584 ft | 396 kts | 44° |
| 2026-05-06 10:46 | 40.00544 | 14.62859 | 29226 ft | 393 kts | 44° |
| 2026-05-06 10:46 | 40.02377 | 14.65510 | 28872 ft | 390 kts | 44° |
| 2026-05-06 10:47 | 40.04191 | 14.68124 | 28541 ft | 388 kts | 44° |
| 2026-05-06 10:47 | 40.06003 | 14.70733 | 28174 ft | 387 kts | 44° |
| 2026-05-06 10:47 | 40.07809 | 14.73336 | 27826 ft | 389 kts | 44° |
| 2026-05-06 10:47 | 40.09651 | 14.75991 | 27481 ft | 399 kts | 44° |
| 2026-05-06 10:48 | 40.11498 | 14.78657 | 27110 ft | 402 kts | 44° |
| 2026-05-06 10:48 | 40.13365 | 14.81361 | 26722 ft | 400 kts | 44° |
| 2026-05-06 10:48 | 40.15222 | 14.84044 | 26360 ft | 397 kts | 44° |
| 2026-05-06 10:48 | 40.17095 | 14.86669 | 26047 ft | 393 kts | 43° |
| 2026-05-06 10:49 | 40.18968 | 14.89249 | 25686 ft | 391 kts | 43° |
| 2026-05-06 10:49 | 40.20840 | 14.91816 | 25332 ft | 389 kts | 43° |
| 2026-05-06 10:49 | 40.22699 | 14.94372 | 24971 ft | 387 kts | 43° |
| 2026-05-06 10:49 | 40.24307 | 14.96589 | 24660 ft | 386 kts | 43° |
| 2026-05-06 10:50 | 40.25909 | 14.98802 | 24345 ft | 385 kts | 43° |
| 2026-05-06 10:50 | 40.27753 | 15.01357 | 23974 ft | 385 kts | 43° |
| 2026-05-06 10:50 | 40.29590 | 15.03906 | 23594 ft | 385 kts | 43° |
| 2026-05-06 10:50 | 40.31423 | 15.06455 | 23170 ft | 384 kts | 43° |
| 2026-05-06 10:51 | 40.33252 | 15.08999 | 22781 ft | 382 kts | 44° |
| 2026-05-06 10:51 | 40.35067 | 15.11526 | 22415 ft | 379 kts | 44° |
| 2026-05-06 10:51 | 40.36850 | 15.14012 | 22034 ft | 377 kts | 44° |
| 2026-05-06 10:51 | 40.38646 | 15.16515 | 21691 ft | 375 kts | 44° |
| 2026-05-06 10:52 | 40.40428 | 15.19002 | 21326 ft | 372 kts | 44° |
| 2026-05-06 10:52 | 40.42195 | 15.21469 | 20976 ft | 369 kts | 44° |
| 2026-05-06 10:52 | 40.43945 | 15.23908 | 20720 ft | 364 kts | 44° |
| 2026-05-06 10:52 | 40.45679 | 15.26322 | 20378 ft | 363 kts | 44° |
| 2026-05-06 10:53 | 40.47408 | 15.28730 | 20037 ft | 361 kts | 44° |
| 2026-05-06 10:53 | 40.49128 | 15.31127 | 19689 ft | 360 kts | 44° |
| 2026-05-06 10:53 | 40.50840 | 15.33516 | 19349 ft | 358 kts | 44° |
| 2026-05-06 10:53 | 40.52551 | 15.35906 | 18994 ft | 356 kts | 44° |
| 2026-05-06 10:54 | 40.54244 | 15.38274 | 18663 ft | 354 kts | 45° |
| 2026-05-06 10:54 | 40.55930 | 15.40632 | 18277 ft | 353 kts | 44° |
| 2026-05-06 10:54 | 40.57602 | 15.42974 | 17917 ft | 350 kts | 44° |
| 2026-05-06 10:54 | 40.59244 | 15.45276 | 17541 ft | 349 kts | 44° |
| 2026-05-06 10:55 | 40.60878 | 15.47648 | 17195 ft | 348 kts | 49° |
| 2026-05-06 10:55 | 40.62332 | 15.50172 | 16893 ft | 345 kts | 52° |
| 2026-05-06 10:55 | 40.63709 | 15.52752 | 16558 ft | 344 kts | 53° |
| 2026-05-06 10:55 | 40.65076 | 15.55334 | 16229 ft | 342 kts | 53° |
| 2026-05-06 10:56 | 40.66444 | 15.57895 | 15862 ft | 340 kts | 52° |
| 2026-05-06 10:56 | 40.67817 | 15.60431 | 15550 ft | 339 kts | 52° |
| 2026-05-06 10:56 | 40.69189 | 15.62952 | 15206 ft | 338 kts | 52° |
| 2026-05-06 10:56 | 40.70562 | 15.65468 | 14860 ft | 338 kts | 52° |
| 2026-05-06 10:57 | 40.71930 | 15.67986 | 14518 ft | 337 kts | 53° |
| 2026-05-06 10:57 | 40.73244 | 15.70489 | 14256 ft | 333 kts | 53° |
| 2026-05-06 10:57 | 40.74534 | 15.72983 | 13961 ft | 331 kts | 53° |
| 2026-05-06 10:57 | 40.75833 | 15.75500 | 13508 ft | 328 kts | 53° |
| 2026-05-06 10:58 | 40.77105 | 15.77967 | 13148 ft | 320 kts | 53° |
| 2026-05-06 10:58 | 40.78349 | 15.80380 | 12821 ft | 318 kts | 53° |
| 2026-05-06 10:58 | 40.79596 | 15.82793 | 12470 ft | 317 kts | 53° |
| 2026-05-06 10:58 | 40.80839 | 15.85200 | 12163 ft | 317 kts | 53° |
| 2026-05-06 10:59 | 40.82084 | 15.87607 | 11813 ft | 318 kts | 53° |
| 2026-05-06 10:59 | 40.83332 | 15.90024 | 11488 ft | 317 kts | 54° |
| 2026-05-06 10:59 | 40.84568 | 15.92421 | 11248 ft | 313 kts | 54° |
| 2026-05-06 10:59 | 40.85784 | 15.94781 | 10890 ft | 312 kts | 54° |
| 2026-05-06 11:00 | 40.86982 | 15.97107 | 10566 ft | 308 kts | 54° |
| 2026-05-06 11:00 | 40.88180 | 15.99435 | 10262 ft | 304 kts | 54° |
| 2026-05-06 11:00 | 40.89355 | 16.01721 | 10108 ft | 297 kts | 54° |
| 2026-05-06 11:00 | 40.90520 | 16.03985 | 9786 ft | 298 kts | 54° |
| 2026-05-06 11:01 | 40.91679 | 16.06243 | 9494 ft | 293 kts | 54° |
| 2026-05-06 11:01 | 40.92800 | 16.08428 | 9391 ft | 280 kts | 54° |
| 2026-05-06 11:01 | 40.93873 | 16.10520 | 9258 ft | 269 kts | 55° |
| 2026-05-06 11:01 | 40.94901 | 16.12526 | 9141 ft | 258 kts | 54° |
| 2026-05-06 11:02 | 40.95870 | 16.14419 | 9063 ft | 246 kts | 55° |
| 2026-05-06 11:02 | 40.96779 | 16.16347 | 8890 ft | 251 kts | 59° |
| 2026-05-06 11:02 | 40.97590 | 16.18449 | 8583 ft | 259 kts | 65° |
| 2026-05-06 11:02 | 40.98290 | 16.20662 | 8254 ft | 261 kts | 68° |
| 2026-05-06 11:03 | 40.98937 | 16.22921 | 7914 ft | 264 kts | 69° |
| 2026-05-06 11:03 | 40.99572 | 16.25205 | 7601 ft | 266 kts | 70° |
| 2026-05-06 11:03 | 41.00215 | 16.27520 | 7252 ft | 269 kts | 70° |
| 2026-05-06 11:03 | 41.00862 | 16.29846 | 6900 ft | 268 kts | 70° |
| 2026-05-06 11:04 | 41.01503 | 16.32144 | 6546 ft | 264 kts | 70° |
| 2026-05-06 11:04 | 41.02138 | 16.34419 | 6205 ft | 261 kts | 70° |
| 2026-05-06 11:04 | 41.02766 | 16.36663 | 5861 ft | 258 kts | 70° |
| 2026-05-06 11:04 | 41.03385 | 16.38876 | 5540 ft | 254 kts | 70° |
| 2026-05-06 11:05 | 41.03989 | 16.41030 | 5226 ft | 246 kts | 70° |
| 2026-05-06 11:05 | 41.04555 | 16.43055 | 4914 ft | 240 kts | 70° |
| 2026-05-06 11:05 | 41.05114 | 16.45063 | 4683 ft | 230 kts | 70° |
| 2026-05-06 11:05 | 41.05663 | 16.47017 | 4409 ft | 223 kts | 70° |
| 2026-05-06 11:06 | 41.06195 | 16.48914 | 4110 ft | 215 kts | 70° |
| 2026-05-06 11:06 | 41.06718 | 16.50762 | 3826 ft | 214 kts | 70° |
| 2026-05-06 11:06 | 41.07234 | 16.52603 | 3549 ft | 211 kts | 70° |
| 2026-05-06 11:06 | 41.07742 | 16.54421 | 3275 ft | 210 kts | 70° |
| 2026-05-06 11:07 | 41.08255 | 16.56231 | 2987 ft | 208 kts | 71° |
| 2026-05-06 11:07 | 41.08750 | 16.57989 | 2719 ft | 201 kts | 71° |
| 2026-05-06 11:07 | 41.09219 | 16.59648 | 2528 ft | 182 kts | 72° |
| 2026-05-06 11:07 | 41.09636 | 16.61156 | 2213 ft | 166 kts | 71° |
| 2026-05-06 11:08 | 41.10032 | 16.62539 | 2027 ft | 162 kts | 71° |
| 2026-05-06 11:08 | 41.10428 | 16.63946 | 1836 ft | 164 kts | 71° |
| 2026-05-06 11:08 | 41.10809 | 16.65338 | 1622 ft | 155 kts | 71° |
| 2026-05-06 11:08 | 41.11190 | 16.66668 | 1451 ft | 152 kts | 72° |
| 2026-05-06 11:09 | 41.11601 | 16.68085 | 1216 ft | 173 kts | 72° |
| 2026-05-06 11:09 | 41.12016 | 16.69574 | 979 ft | 171 kts | 72° |
| 2026-05-06 11:09 | 41.12417 | 16.70986 | 770 ft | 160 kts | 72° |
| 2026-05-06 11:09 | 41.12806 | 16.72356 | 535 ft | 153 kts | 73° |
| 2026-05-06 11:10 | 41.13168 | 16.73645 | 359 ft | 149 kts | 73° |
| 2026-05-06 11:10 | 41.13535 | 16.74932 | 180 ft | 146 kts | 74° |
| 2026-05-06 11:10 | 41.13853 | 16.76059 | 154 ft | 108 kts | 69° |
| 2026-05-06 11:10 | 41.14059 | 16.76779 | 133 ft | 60 kts | 69° |
| 2026-05-06 11:11 | 41.14189 | 16.77242 | 115 ft | 32 kts | 70° |
| 2026-05-06 11:11 | 41.14151 | 16.77423 | 115 ft | 20 kts | 179° |
| 2026-05-06 11:11 | 41.14031 | 16.77351 | 120 ft | 19 kts | 237° |
| 2026-05-06 11:11 | 41.13983 | 16.77188 | 123 ft | 19 kts | 249° |
| 2026-05-06 11:12 | 41.13937 | 16.77031 | 125 ft | 18 kts | 248° |
| 2026-05-06 11:12 | 41.13893 | 16.76879 | 128 ft | 17 kts | 250° |
| 2026-05-06 11:12 | 41.13851 | 16.76719 | 132 ft | 19 kts | 251° |
| 2026-05-06 11:12 | 41.13773 | 16.76582 | 137 ft | 19 kts | 204° |
| 2026-05-06 11:13 | 41.13653 | 16.76513 | 141 ft | 19 kts | 212° |
| 2026-05-06 11:13 | 41.13595 | 16.76500 | 144 ft | 8 kts | 176° |
| 2026-05-06 11:13 | 41.13584 | 16.76503 | 144 ft | 0 kts | 168° |